createdAt,value
2018-12-20T00:01:21.724Z,6.00
2018-12-20T00:03:50.308Z,6.00
2018-12-20T00:06:18.471Z,6.10
2018-12-20T00:08:46.704Z,6.10
2018-12-20T00:11:15.077Z,6.10
2018-12-20T00:13:43.273Z,6.20
2018-12-20T00:16:11.422Z,6.10
2018-12-20T00:18:39.622Z,6.20
2018-12-20T00:21:07.750Z,6.30
2018-12-20T00:23:35.868Z,6.30
2018-12-20T00:26:04.147Z,6.20
2018-12-20T00:28:32.420Z,6.30
2018-12-20T00:31:00.862Z,6.40
2018-12-20T00:33:29.154Z,6.40
2018-12-20T00:35:57.560Z,6.40
2018-12-20T00:38:25.794Z,6.50
2018-12-20T00:40:53.962Z,6.40
2018-12-20T00:43:22.178Z,6.50
2018-12-20T00:45:50.590Z,6.50
2018-12-20T00:48:18.894Z,6.60
2018-12-20T00:50:47.049Z,6.60
2018-12-20T00:53:15.201Z,6.70
2018-12-20T00:55:43.409Z,6.60
2018-12-20T00:58:11.623Z,6.60
2018-12-20T01:00:39.905Z,6.60
2018-12-20T01:03:08.117Z,6.60
2018-12-20T01:05:36.388Z,6.60
2018-12-20T01:08:04.860Z,6.60
2018-12-20T01:10:33.131Z,6.60
2018-12-20T01:13:01.406Z,6.60
2018-12-20T01:15:29.956Z,6.60
2018-12-20T01:17:58.181Z,6.60
2018-12-20T01:20:26.345Z,6.70
2018-12-20T01:22:55.495Z,6.70
2018-12-20T01:25:23.645Z,6.80
2018-12-20T01:27:51.894Z,6.90
2018-12-20T01:30:20.096Z,7.00
2018-12-20T01:32:48.417Z,7.10
2018-12-20T01:35:16.625Z,7.10
2018-12-20T01:37:44.885Z,7.20
2018-12-20T01:40:13.299Z,7.10
2018-12-20T01:42:41.700Z,7.00
2018-12-20T01:45:10.164Z,6.90
2018-12-20T01:47:38.390Z,7.00
2018-12-20T01:50:07.241Z,7.00
2018-12-20T01:52:35.436Z,7.00
2018-12-20T01:55:03.818Z,7.00
2018-12-20T01:57:32.187Z,7.00
2018-12-20T02:00:00.361Z,7.00
2018-12-20T02:02:28.566Z,6.90
2018-12-20T02:04:56.938Z,7.00
2018-12-20T02:07:25.390Z,7.00
2018-12-20T02:09:53.833Z,7.10
2018-12-20T02:12:22.260Z,7.10
2018-12-20T02:14:50.561Z,7.10
2018-12-20T02:17:18.908Z,7.10
2018-12-20T02:19:47.223Z,7.20
2018-12-20T02:22:15.445Z,7.20
2018-12-20T02:24:43.875Z,7.20
2018-12-20T02:27:12.276Z,7.30
2018-12-20T02:29:40.651Z,7.30
2018-12-20T02:32:09.084Z,7.30
2018-12-20T02:34:37.556Z,7.40
2018-12-20T02:37:06.003Z,7.40
2018-12-20T02:39:34.213Z,7.40
2018-12-20T02:42:02.506Z,7.30
2018-12-20T02:44:31.177Z,7.30
2018-12-20T02:46:59.652Z,7.30
2018-12-20T02:49:28.003Z,7.30
2018-12-20T02:51:56.304Z,7.30
2018-12-20T02:54:24.712Z,7.30
2018-12-20T02:56:53.048Z,7.30
2018-12-20T02:59:21.196Z,7.30
2018-12-20T03:01:49.398Z,7.20
2018-12-20T03:04:17.601Z,7.10
2018-12-20T03:06:46.098Z,7.00
2018-12-20T03:09:14.739Z,7.00
2018-12-20T03:11:42.994Z,7.10
2018-12-20T03:14:11.405Z,7.20
2018-12-20T03:16:40.019Z,7.20
2018-12-20T03:19:08.294Z,7.30
2018-12-20T03:21:36.605Z,7.30
2018-12-20T03:24:04.805Z,7.40
2018-12-20T03:26:32.921Z,7.50
2018-12-20T03:29:01.073Z,7.50
2018-12-20T03:31:29.737Z,7.60
2018-12-20T03:33:58.287Z,7.60
2018-12-20T03:36:26.577Z,7.60
2018-12-20T03:38:54.789Z,7.60
2018-12-20T03:41:23.049Z,7.60
2018-12-20T03:43:51.297Z,7.50
2018-12-20T03:46:19.572Z,7.60
2018-12-20T03:48:47.870Z,7.60
2018-12-20T03:51:16.447Z,7.70
2018-12-20T03:53:44.849Z,7.80
2018-12-20T03:56:13.113Z,7.80
2018-12-20T03:58:41.252Z,7.80
2018-12-20T04:01:09.453Z,7.80
2018-12-20T04:03:37.681Z,7.80
2018-12-20T04:06:06.233Z,8.00
2018-12-20T04:08:34.449Z,7.90
2018-12-20T04:11:02.619Z,7.90
2018-12-20T04:13:30.800Z,7.90
2018-12-20T04:15:59.002Z,8.00
2018-12-20T04:18:27.218Z,8.00
2018-12-20T04:20:55.400Z,8.00
2018-12-20T04:23:23.701Z,7.90
2018-12-20T04:25:51.827Z,7.90
2018-12-20T04:28:20.030Z,7.80
2018-12-20T04:30:48.306Z,7.70
2018-12-20T04:33:16.661Z,7.80
2018-12-20T04:35:45.237Z,7.70
2018-12-20T04:38:13.421Z,7.60
2018-12-20T04:40:41.554Z,7.60
2018-12-20T04:43:09.682Z,7.50
2018-12-20T04:45:46.447Z,7.40
2018-12-20T04:48:08.096Z,7.40
2018-12-20T04:50:36.444Z,7.30
2018-12-20T04:53:05.047Z,7.20
2018-12-20T04:55:33.431Z,7.00
2018-12-20T04:58:01.780Z,6.90
2018-12-20T05:00:30.137Z,6.80
2018-12-20T05:02:58.437Z,6.90
2018-12-20T05:05:26.679Z,6.90
2018-12-20T05:07:54.843Z,6.70
2018-12-20T05:10:23.082Z,6.70
2018-12-20T05:12:51.205Z,6.70
2018-12-20T05:15:19.398Z,6.80
2018-12-20T05:17:47.557Z,6.50
2018-12-20T05:20:16.027Z,6.60
2018-12-20T05:22:44.549Z,6.50
2018-12-20T05:25:12.823Z,6.40
2018-12-20T05:27:41.012Z,6.40
2018-12-20T05:30:09.303Z,6.50
2018-12-20T05:32:37.546Z,6.60
2018-12-20T05:35:05.940Z,6.70
2018-12-20T05:37:34.147Z,6.90
2018-12-20T05:40:02.525Z,7.00
2018-12-20T05:42:30.920Z,7.10
2018-12-20T05:44:59.092Z,7.10
2018-12-20T05:47:27.462Z,7.20
2018-12-20T05:49:55.721Z,7.20
2018-12-20T05:52:24.071Z,7.20
2018-12-20T05:54:52.349Z,7.30
2018-12-20T05:57:20.526Z,7.50
2018-12-20T05:59:48.637Z,7.50
2018-12-20T06:02:17.148Z,7.40
2018-12-20T06:04:45.421Z,7.40
2018-12-20T06:07:13.718Z,7.40
2018-12-20T06:09:41.941Z,7.50
2018-12-20T06:12:10.227Z,7.50
2018-12-20T06:14:38.474Z,7.60
2018-12-20T06:17:06.631Z,7.70
2018-12-20T06:19:35.001Z,7.70
2018-12-20T06:22:03.542Z,7.90
2018-12-20T06:24:31.781Z,8.00
2018-12-20T06:26:59.959Z,7.80
2018-12-20T06:29:29.209Z,7.60
2018-12-20T06:31:57.334Z,7.50
2018-12-20T06:34:25.452Z,7.40
2018-12-20T06:36:53.706Z,7.30
2018-12-20T06:39:21.973Z,7.30
2018-12-20T06:41:50.108Z,7.30
2018-12-20T06:44:18.289Z,7.40
2018-12-20T06:46:51.500Z,7.40
2018-12-20T06:49:19.792Z,7.30
2018-12-20T06:51:47.993Z,7.30
2018-12-20T06:54:16.369Z,7.20
2018-12-20T06:56:44.485Z,7.20
2018-12-20T06:59:12.662Z,7.20
2018-12-20T07:01:40.902Z,7.10
2018-12-20T07:04:09.014Z,7.30
2018-12-20T07:06:37.457Z,7.20
2018-12-20T07:09:08.470Z,7.20
2018-12-20T07:11:36.866Z,7.10
2018-12-20T07:14:05.046Z,7.10
2018-12-20T07:16:33.297Z,7.10
2018-12-20T07:19:01.508Z,7.00
2018-12-20T07:21:29.717Z,7.00
2018-12-20T07:23:57.833Z,7.10
2018-12-20T07:26:26.178Z,7.10
2018-12-20T07:28:54.353Z,7.10
2018-12-20T07:31:22.547Z,7.10
2018-12-20T07:33:51.473Z,7.10
2018-12-20T07:36:20.125Z,7.10
2018-12-20T07:38:48.244Z,7.00
2018-12-20T07:41:16.555Z,6.90
2018-12-20T07:43:44.687Z,6.90
2018-12-20T07:46:12.960Z,6.90
2018-12-20T07:48:41.076Z,6.90
2018-12-20T07:51:09.264Z,7.00
2018-12-20T07:53:37.491Z,7.10
2018-12-20T07:56:05.740Z,7.10
2018-12-20T07:58:33.888Z,7.10
2018-12-20T08:01:02.228Z,7.20
2018-12-20T08:03:30.362Z,7.20
2018-12-20T08:05:58.550Z,7.40
2018-12-20T08:08:26.693Z,7.60
2018-12-20T08:10:54.870Z,7.70
2018-12-20T08:13:23.002Z,7.80
2018-12-20T08:15:51.262Z,7.80
2018-12-20T08:18:19.385Z,7.80
2018-12-20T08:20:47.494Z,7.70
2018-12-20T08:23:15.605Z,7.60
2018-12-20T08:25:43.781Z,7.60
2018-12-20T08:28:11.985Z,7.60
2018-12-20T08:30:40.175Z,7.60
2018-12-20T08:33:08.282Z,7.40
2018-12-20T08:35:36.410Z,7.50
2018-12-20T08:38:04.748Z,7.60
2018-12-20T08:40:32.874Z,7.50
2018-12-20T08:43:01.077Z,7.50
2018-12-20T08:45:29.290Z,7.50
2018-12-20T08:47:57.394Z,7.50
2018-12-20T08:50:25.588Z,7.60
2018-12-20T08:52:53.698Z,7.60
2018-12-20T08:55:21.821Z,7.70
2018-12-20T08:57:49.997Z,7.80
2018-12-20T09:00:18.173Z,7.90
2018-12-20T09:02:46.281Z,8.00
2018-12-20T09:05:14.461Z,8.20
2018-12-20T09:07:42.654Z,8.10
2018-12-20T09:10:10.830Z,8.20
2018-12-20T09:12:39.035Z,8.20
2018-12-20T09:15:07.290Z,8.20
2018-12-20T09:17:35.467Z,8.30
2018-12-20T09:20:04.403Z,8.10
2018-12-20T09:22:32.526Z,8.10
2018-12-20T09:25:00.937Z,8.10
2018-12-20T09:27:29.134Z,7.90
2018-12-20T09:29:57.280Z,7.90
2018-12-20T09:32:25.688Z,7.90
2018-12-20T09:34:53.845Z,7.90
2018-12-20T09:37:22.021Z,8.10
2018-12-20T09:39:50.146Z,8.20
2018-12-20T09:42:18.279Z,8.20
2018-12-20T09:44:46.853Z,8.20
2018-12-20T09:47:20.506Z,8.20
2018-12-20T09:49:49.718Z,8.20
2018-12-20T09:52:17.849Z,8.20
2018-12-20T09:54:45.991Z,8.20
2018-12-20T09:57:14.129Z,8.20
2018-12-20T09:59:42.337Z,8.20
2018-12-20T10:02:10.511Z,8.30
2018-12-20T10:04:38.678Z,8.20
2018-12-20T10:07:06.811Z,8.40
2018-12-20T10:09:35.000Z,8.40
2018-12-20T10:12:03.266Z,8.40
2018-12-20T10:14:31.494Z,8.50
2018-12-20T10:16:59.706Z,8.40
2018-12-20T10:19:27.889Z,8.40
2018-12-20T10:21:56.005Z,8.30
2018-12-20T10:24:24.189Z,8.30
2018-12-20T10:26:52.378Z,8.20
2018-12-20T10:29:20.548Z,8.10
2018-12-20T10:31:48.678Z,8.10
2018-12-20T10:34:16.799Z,8.20
2018-12-20T10:36:44.985Z,8.20
2018-12-20T10:39:13.199Z,8.20
2018-12-20T10:41:41.403Z,8.20
2018-12-20T10:44:09.530Z,8.20
2018-12-20T10:46:37.777Z,8.30
2018-12-20T10:49:05.989Z,8.40
2018-12-20T10:51:34.187Z,8.30
2018-12-20T10:54:02.425Z,8.20
2018-12-20T10:56:30.615Z,8.30
2018-12-20T10:58:58.874Z,8.20
2018-12-20T11:01:32.622Z,8.30
2018-12-20T11:04:06.160Z,8.40
2018-12-20T11:06:39.737Z,8.30
2018-12-20T11:09:13.937Z,8.30
2018-12-20T11:11:47.511Z,8.20
2018-12-20T11:14:16.163Z,8.20
2018-12-20T11:16:44.370Z,8.20
2018-12-20T11:19:12.633Z,8.30
2018-12-20T11:21:40.825Z,8.20
2018-12-20T11:24:08.937Z,8.30
2018-12-20T11:26:37.155Z,8.20
2018-12-20T11:29:05.361Z,8.20
2018-12-20T11:31:33.500Z,8.30
2018-12-20T11:34:01.702Z,8.30
2018-12-20T11:36:29.811Z,8.30
2018-12-20T11:38:57.944Z,8.20
2018-12-20T11:41:26.213Z,8.30
2018-12-20T11:43:54.309Z,8.20
2018-12-20T11:46:22.421Z,8.20
2018-12-20T11:48:50.547Z,8.20
2018-12-20T11:51:18.634Z,8.20
2018-12-20T11:53:46.902Z,8.20
2018-12-20T11:56:15.161Z,8.20
2018-12-20T11:58:43.337Z,8.10
2018-12-20T12:01:11.513Z,8.20
2018-12-20T12:03:39.622Z,8.20
2018-12-20T12:06:07.781Z,8.20
2018-12-20T12:08:35.912Z,8.30
2018-12-20T12:11:04.097Z,8.30
2018-12-20T12:13:32.273Z,8.40
2018-12-20T12:16:00.447Z,8.40
2018-12-20T12:18:28.806Z,8.50
2018-12-20T12:20:56.976Z,8.40
2018-12-20T12:23:25.084Z,8.40
2018-12-20T12:25:53.200Z,8.40
2018-12-20T12:28:21.314Z,8.40
2018-12-20T12:30:49.496Z,8.50
2018-12-20T12:33:17.776Z,8.50
2018-12-20T12:35:45.878Z,8.60
2018-12-20T12:38:14.074Z,8.60
2018-12-20T12:40:42.225Z,8.60
2018-12-20T12:43:10.514Z,8.50
2018-12-20T12:45:38.825Z,8.50
2018-12-20T12:48:07.029Z,8.60
2018-12-20T12:50:35.205Z,8.60
2018-12-20T12:53:03.381Z,8.60
2018-12-20T12:55:31.489Z,8.70
2018-12-20T12:58:04.551Z,8.70
2018-12-20T13:00:29.995Z,8.70
2018-12-20T13:02:58.192Z,8.70
2018-12-20T13:05:26.388Z,8.60
2018-12-20T13:07:54.484Z,8.50
2018-12-20T13:10:22.665Z,8.50
2018-12-20T13:12:50.771Z,8.50
2018-12-20T13:15:18.953Z,8.50
2018-12-20T13:17:47.278Z,8.60
2018-12-20T13:20:16.461Z,8.60
2018-12-20T13:22:45.656Z,8.70
2018-12-20T13:25:14.204Z,8.60
2018-12-20T13:27:42.440Z,8.70
2018-12-20T13:30:11.952Z,8.60
2018-12-20T13:32:40.118Z,8.60
2018-12-20T13:35:08.300Z,8.60
2018-12-20T13:37:36.397Z,8.50
2018-12-20T13:40:05.251Z,8.50
2018-12-20T13:42:33.429Z,8.50
2018-12-20T13:45:01.674Z,8.50
2018-12-20T13:47:29.853Z,8.50
2018-12-20T13:49:57.967Z,8.50
2018-12-20T13:52:26.148Z,8.60
2018-12-20T13:54:54.383Z,8.50
2018-12-20T13:57:22.548Z,8.50
2018-12-20T13:59:50.660Z,8.50
2018-12-20T14:02:18.896Z,8.60
2018-12-20T14:04:47.027Z,8.50
2018-12-20T14:07:15.314Z,8.60
2018-12-20T14:09:43.423Z,8.60
2018-12-20T14:12:11.678Z,8.50
2018-12-20T14:14:39.982Z,8.60
2018-12-20T14:17:08.113Z,8.70
2018-12-20T14:19:36.301Z,8.60
2018-12-20T14:22:04.567Z,8.60
2018-12-20T14:24:32.747Z,8.70
2018-12-20T14:27:00.860Z,8.60
2018-12-20T14:29:29.082Z,8.60
2018-12-20T14:31:57.213Z,8.70
2018-12-20T14:34:25.448Z,8.70
2018-12-20T14:36:53.634Z,8.90
2018-12-20T14:39:21.905Z,8.60
2018-12-20T14:41:50.225Z,8.60
2018-12-20T14:44:18.400Z,8.60
2018-12-20T14:46:46.629Z,8.50
2018-12-20T14:49:14.717Z,8.50
2018-12-20T14:51:42.994Z,8.50
2018-12-20T14:54:11.165Z,8.50
2018-12-20T14:56:39.376Z,8.50
2018-12-20T14:59:07.572Z,8.50
2018-12-20T15:01:35.752Z,8.50
2018-12-20T15:04:03.924Z,8.50
2018-12-20T15:06:32.112Z,8.50
2018-12-20T15:09:00.220Z,8.50
2018-12-20T15:11:28.391Z,8.30
2018-12-20T15:13:56.629Z,8.30
2018-12-20T15:16:24.737Z,8.20
2018-12-20T15:18:52.930Z,8.20
2018-12-20T15:21:21.088Z,8.10
2018-12-20T15:23:49.326Z,8.10
2018-12-20T15:26:17.449Z,8.10
2018-12-20T15:28:45.559Z,8.10
2018-12-20T15:31:13.736Z,8.10
2018-12-20T15:33:41.969Z,8.10
2018-12-20T15:36:10.155Z,8.10
2018-12-20T15:38:38.328Z,8.10
2018-12-20T15:41:06.611Z,8.20
2018-12-20T15:43:34.782Z,8.20
2018-12-20T15:46:03.036Z,8.20
2018-12-20T15:48:31.310Z,8.30
2018-12-20T15:50:59.487Z,8.20
2018-12-20T15:53:27.869Z,8.10
2018-12-20T15:55:56.058Z,8.10
2018-12-20T15:58:24.251Z,8.10
2018-12-20T16:00:52.493Z,8.10
2018-12-20T16:03:20.685Z,8.10
2018-12-20T16:05:48.794Z,8.10
2018-12-20T16:08:17.766Z,8.10
2018-12-20T16:10:45.856Z,8.10
2018-12-20T16:13:13.961Z,8.20
2018-12-20T16:15:42.184Z,8.20
2018-12-20T16:18:10.439Z,8.20
2018-12-20T16:20:38.542Z,8.20
2018-12-20T16:23:06.803Z,8.20
2018-12-20T16:25:34.973Z,8.20
2018-12-20T16:28:03.112Z,8.20
2018-12-20T16:30:31.299Z,8.20
2018-12-20T16:32:59.540Z,8.20
2018-12-20T16:35:27.733Z,8.20
2018-12-20T16:37:55.916Z,8.20
2018-12-20T16:40:24.086Z,8.20
2018-12-20T16:42:52.201Z,8.20
2018-12-20T16:45:20.327Z,8.20
2018-12-20T16:47:48.534Z,8.20
2018-12-20T16:50:16.810Z,8.20
2018-12-20T16:52:44.992Z,8.10
2018-12-20T16:55:13.106Z,8.10
2018-12-20T16:57:41.584Z,8.10
2018-12-20T17:00:11.510Z,8.10
2018-12-20T17:02:39.697Z,8.10
2018-12-20T17:05:07.882Z,8.10
2018-12-20T17:07:36.061Z,8.10
2018-12-20T17:10:04.525Z,8.20
2018-12-20T17:12:32.704Z,8.20
2018-12-20T17:15:00.942Z,8.20
2018-12-20T17:17:29.078Z,8.10
2018-12-20T17:19:57.301Z,8.00
2018-12-20T17:22:25.546Z,8.10
2018-12-20T17:24:53.848Z,8.10
2018-12-20T17:27:22.077Z,8.00
2018-12-20T17:29:50.189Z,8.00
2018-12-20T17:32:18.354Z,8.00
2018-12-20T17:34:46.455Z,8.10
2018-12-20T17:37:14.612Z,8.00
2018-12-20T17:39:42.734Z,8.00
2018-12-20T17:42:10.904Z,8.00
2018-12-20T17:44:39.161Z,8.00
2018-12-20T17:47:07.402Z,7.90
2018-12-20T17:49:35.510Z,7.80
2018-12-20T17:52:03.674Z,7.80
2018-12-20T17:54:31.858Z,7.80
2018-12-20T17:57:00.033Z,7.80
2018-12-20T17:59:28.150Z,7.80
2018-12-20T18:01:56.262Z,7.80
2018-12-20T18:04:24.373Z,7.80
2018-12-20T18:06:52.545Z,7.80
2018-12-20T18:09:20.760Z,7.70
2018-12-20T18:11:48.874Z,7.80
2018-12-20T18:14:17.089Z,7.70
2018-12-20T18:16:45.244Z,7.60
2018-12-20T18:19:13.416Z,7.60
2018-12-20T18:21:41.539Z,7.70
2018-12-20T18:24:09.650Z,7.60
2018-12-20T18:26:37.826Z,7.60
2018-12-20T18:29:06.011Z,7.60
2018-12-20T18:31:34.274Z,7.60
2018-12-20T18:34:02.454Z,7.60
2018-12-20T18:36:30.619Z,7.60
2018-12-20T18:38:58.826Z,7.60
2018-12-20T18:41:26.955Z,7.60
2018-12-20T18:43:55.198Z,7.70
2018-12-20T18:46:23.392Z,7.70
2018-12-20T18:48:51.656Z,7.70
2018-12-20T18:51:19.855Z,7.60
2018-12-20T18:53:47.983Z,7.60
2018-12-20T18:56:16.178Z,7.60
2018-12-20T18:58:44.356Z,7.50
2018-12-20T19:01:12.548Z,7.50
2018-12-20T19:03:40.642Z,7.60
2018-12-20T19:06:08.843Z,7.70
2018-12-20T19:08:37.003Z,7.70
2018-12-20T19:11:05.223Z,7.70
2018-12-20T19:13:33.398Z,7.80
2018-12-20T19:16:01.593Z,7.80
2018-12-20T19:18:29.731Z,7.70
2018-12-20T19:20:57.854Z,7.70
2018-12-20T19:23:26.036Z,7.80
2018-12-20T19:25:54.244Z,7.70
2018-12-20T19:28:22.407Z,7.80
2018-12-20T19:30:50.520Z,7.80
2018-12-20T19:33:18.704Z,7.70
2018-12-20T19:35:46.890Z,7.80
2018-12-20T19:38:20.499Z,7.70
2018-12-20T19:40:45.290Z,7.60
2018-12-20T19:43:13.412Z,7.70
2018-12-20T19:45:46.029Z,7.60
2018-12-20T19:48:11.792Z,7.50
2018-12-20T19:50:39.975Z,7.50
2018-12-20T19:53:09.127Z,7.40
2018-12-20T19:55:37.230Z,7.40
2018-12-20T19:58:05.387Z,7.40
2018-12-20T20:00:33.502Z,7.40
2018-12-20T20:03:01.666Z,7.40
2018-12-20T20:05:29.905Z,7.40
2018-12-20T20:07:58.188Z,7.40
2018-12-20T20:10:26.292Z,7.40
2018-12-20T20:12:54.462Z,7.50
2018-12-20T20:15:22.725Z,7.60
2018-12-20T20:17:50.818Z,7.60
2018-12-20T20:20:19.103Z,7.50
2018-12-20T20:22:47.350Z,7.50
2018-12-20T20:25:15.512Z,7.40
2018-12-20T20:27:43.719Z,7.50
2018-12-20T20:30:14.064Z,7.40
2018-12-20T20:32:42.243Z,7.40
2018-12-20T20:35:10.639Z,7.40
2018-12-20T20:37:38.855Z,7.30
2018-12-20T20:40:09.029Z,7.40
2018-12-20T20:42:37.222Z,7.40
2018-12-20T20:45:06.184Z,7.40
2018-12-20T20:47:34.454Z,7.40
2018-12-20T20:50:02.691Z,7.40
2018-12-20T20:52:30.894Z,7.50
2018-12-20T20:54:59.009Z,7.50
2018-12-20T20:57:27.238Z,7.50
2018-12-20T20:59:55.477Z,7.50
2018-12-20T21:02:23.598Z,7.50
2018-12-20T21:04:51.695Z,7.60
2018-12-20T21:07:19.981Z,7.70
2018-12-20T21:09:48.142Z,7.70
2018-12-20T21:12:22.810Z,7.70
2018-12-20T21:14:52.425Z,7.70
2018-12-20T21:17:16.646Z,7.70
2018-12-20T21:19:44.771Z,7.80
2018-12-20T21:22:13.134Z,7.80
2018-12-20T21:24:41.273Z,7.80
2018-12-20T21:27:09.615Z,7.70
2018-12-20T21:29:37.814Z,7.70
2018-12-20T21:32:06.071Z,7.80
2018-12-20T21:34:34.258Z,7.70
2018-12-20T21:37:02.466Z,7.70
2018-12-20T21:39:30.694Z,7.70
2018-12-20T21:41:58.873Z,7.70
2018-12-20T21:44:26.988Z,7.70
2018-12-20T21:46:55.218Z,7.70
2018-12-20T21:49:23.334Z,7.80
2018-12-20T21:51:51.439Z,7.70
2018-12-20T21:54:19.677Z,7.70
2018-12-20T21:56:47.966Z,7.80
2018-12-20T21:59:16.149Z,7.80
2018-12-20T22:01:44.315Z,7.90
2018-12-20T22:04:12.477Z,7.80
2018-12-20T22:06:40.585Z,7.80
2018-12-20T22:09:08.711Z,7.80
2018-12-20T22:11:36.810Z,7.70
2018-12-20T22:14:04.934Z,7.80
2018-12-20T22:16:33.037Z,7.80
2018-12-20T22:19:01.208Z,7.80
2018-12-20T22:21:29.453Z,7.80
2018-12-20T22:23:57.653Z,7.80
2018-12-20T22:26:25.907Z,7.90
2018-12-20T22:28:54.199Z,7.90
2018-12-20T22:31:22.423Z,7.90
2018-12-20T22:33:50.595Z,7.90
2018-12-20T22:36:18.711Z,7.90
2018-12-20T22:38:46.901Z,7.90
2018-12-20T22:41:15.253Z,7.80
2018-12-20T22:43:43.372Z,7.80
2018-12-20T22:46:11.465Z,7.80
2018-12-20T22:48:39.598Z,7.80
2018-12-20T22:51:08.545Z,7.80
2018-12-20T22:53:36.657Z,7.80
2018-12-20T22:56:04.829Z,7.70
2018-12-20T22:58:33.030Z,7.60
2018-12-20T23:01:03.242Z,7.70
2018-12-20T23:03:31.452Z,7.70
2018-12-20T23:06:01.412Z,7.70
2018-12-20T23:08:29.701Z,7.70
2018-12-20T23:10:57.794Z,7.70
2018-12-20T23:13:25.960Z,7.80
2018-12-20T23:15:54.184Z,7.80
2018-12-20T23:18:22.301Z,7.80
2018-12-20T23:20:50.474Z,7.70
2018-12-20T23:23:18.622Z,7.70
2018-12-20T23:25:46.805Z,7.70
2018-12-20T23:28:14.909Z,7.70
2018-12-20T23:30:43.214Z,7.70
2018-12-20T23:33:11.386Z,7.70
2018-12-20T23:35:39.494Z,7.60
2018-12-20T23:38:07.638Z,7.70
2018-12-20T23:40:35.720Z,7.70
2018-12-20T23:43:03.953Z,7.70
2018-12-20T23:45:32.053Z,7.70
2018-12-20T23:48:00.358Z,7.70
2018-12-20T23:50:28.573Z,7.70
2018-12-20T23:52:56.678Z,7.80
2018-12-20T23:55:24.922Z,7.80
2018-12-20T23:57:53.224Z,7.80
